Time;durP1;ratioP1;P1;durP2;ratioP2;P2;SDS_P1;SDS_P2;PMS_P1;PMS_P2;Temp;Humidity;BMP_temperature;BMP_pressure;BME280_temperature;BME280_humidity;BME280_pressure;Samples;Min_cycle;Max_cycle;Signal;HPM_P1;HPM_P2
2021/11/26 00:01:34;;;;;;;37.10;19.90;;;;;;;4.74;66.32;98037.30;102883;1326;108352;-69
2021/11/26 00:04:04;;;;;;;35.20;19.50;;;;;;;4.76;66.32;98040.00;102603;1322;95644;-70
2021/11/26 00:06:33;;;;;;;39.90;21.10;;;;;;;4.77;66.33;98031.88;102771;1322;97924;-69
2021/11/26 00:09:01;;;;;;;36.90;20.40;;;;;;;4.78;66.32;98034.09;102725;1320;111536;-68
2021/11/26 00:11:28;;;;;;;40.30;21.80;;;;;;;4.79;66.41;98036.28;102752;1321;96395;-69
2021/11/26 00:14:04;;;;;;;39.50;20.70;;;;;;;4.79;66.40;98032.27;102721;1325;108575;-70
2021/11/26 00:16:36;;;;;;;40.30;22.20;;;;;;;4.79;66.37;98026.31;102825;1319;97925;-70
2021/11/26 00:19:07;;;;;;;36.20;20.50;;;;;;;4.77;66.43;98034.63;102700;1322;97067;-69
2021/11/26 00:21:38;;;;;;;40.10;22.20;;;;;;;4.78;66.38;98033.00;102870;1319;111510;-69
2021/11/26 00:24:08;;;;;;;41.90;21.60;;;;;;;4.79;66.43;98030.34;102874;1322;97916;-70
2021/11/26 00:26:36;;;;;;;40.50;20.90;;;;;;;4.80;66.35;98037.83;102783;1321;109117;-70
2021/11/26 00:29:07;;;;;;;41.40;23.00;;;;;;;4.79;66.49;98036.98;102809;1320;97884;-70
2021/11/26 00:31:34;;;;;;;41.00;22.60;;;;;;;4.77;66.55;98040.23;102919;1319;95312;-69
2021/11/26 00:34:05;;;;;;;41.30;21.40;;;;;;;4.77;66.42;98042.90;102801;1325;111671;-70
2021/11/26 00:36:36;;;;;;;40.70;21.50;;;;;;;4.77;66.43;98049.21;102802;1322;97912;-71
2021/11/26 00:39:06;;;;;;;44.70;23.70;;;;;;;4.77;66.52;98055.39;102809;1325;108072;-70
2021/11/26 00:41:35;;;;;;;42.10;23.60;;;;;;;4.77;66.57;98055.70;102801;1322;97881;-70
2021/11/26 00:44:05;;;;;;;41.00;21.90;;;;;;;4.76;66.53;98052.65;102842;1323;97942;-70
2021/11/26 00:46:34;;;;;;;41.00;22.70;;;;;;;4.73;66.54;98058.62;102860;1325;111527;-70
2021/11/26 00:49:03;;;;;;;44.60;23.50;;;;;;;4.71;66.57;98061.04;103041;1319;97937;-71
2021/11/26 00:51:31;;;;;;;45.60;22.00;;;;;;;4.70;66.58;98065.33;102961;1319;107843;-70
2021/11/26 00:54:00;;;;;;;40.90;21.90;;;;;;;4.69;66.54;98064.02;102936;1320;98563;-70
2021/11/26 00:56:28;;;;;;;44.70;24.10;;;;;;;4.66;66.55;98063.17;102971;1322;97849;-70
2021/11/26 00:58:57;;;;;;;43.10;22.40;;;;;;;4.64;66.60;98060.61;102890;1319;111516;-70
2021/11/26 01:01:25;;;;;;;42.40;23.10;;;;;;;4.62;66.62;98058.97;102835;1320;97882;-70
2021/11/26 01:03:55;;;;;;;41.90;22.70;;;;;;;4.61;66.60;98064.66;102960;1319;108264;-70
2021/11/26 01:06:23;;;;;;;42.50;23.20;;;;;;;4.58;66.59;98061.36;102884;1321;98012;-69
2021/11/26 01:08:51;;;;;;;43.40;23.80;;;;;;;4.55;66.60;98059.06;102743;1322;97884;-72
2021/11/26 01:11:19;;;;;;;39.00;22.20;;;;;;;4.54;66.72;98061.60;102847;1322;111827;-72
2021/11/26 01:13:47;;;;;;;41.80;23.30;;;;;;;4.52;66.56;98055.94;102913;1319;95365;-71
2021/11/26 01:16:18;;;;;;;47.80;26.20;;;;;;;4.47;66.55;98055.56;102948;1319;107837;-70
2021/11/26 01:18:47;;;;;;;45.30;24.80;;;;;;;4.42;66.66;98051.82;102868;1321;98103;-69
2021/11/26 01:21:15;;;;;;;48.00;26.30;;;;;;;4.39;66.60;98054.29;102921;1322;95326;-69
2021/11/26 01:23:45;;;;;;;49.60;27.50;;;;;;;4.36;66.64;98048.16;102932;1319;112976;-70
2021/11/26 01:26:12;;;;;;;47.60;25.20;;;;;;;4.34;66.74;98038.30;102786;1322;95236;-69
2021/11/26 01:28:40;;;;;;;48.40;26.00;;;;;;;4.34;66.80;98037.23;102858;1325;107887;-69
2021/11/26 01:31:08;;;;;;;50.70;27.90;;;;;;;4.34;66.75;98030.04;102797;1325;95339;-69
2021/11/26 01:33:37;;;;;;;50.00;28.10;;;;;;;4.33;66.74;98024.15;102906;1322;98161;-69
2021/11/26 01:36:05;;;;;;;49.90;26.40;;;;;;;4.34;66.83;98020.41;102777;1326;109458;-69
2021/11/26 01:38:34;;;;;;;48.70;25.90;;;;;;;4.34;66.72;98014.45;102862;1320;97961;-69
2021/11/26 01:41:04;;;;;;;45.10;24.70;;;;;;;4.35;66.68;98012.11;102921;1319;110564;-69
2021/11/26 01:43:33;;;;;;;46.80;25.80;;;;;;;4.35;66.85;98008.77;102842;1325;97905;-69
2021/11/26 01:46:09;;;;;;;47.60;26.70;;;;;;;4.35;66.76;98000.86;103002;1319;97903;-70
2021/11/26 01:48:41;;;;;;;46.00;25.00;;;;;;;4.33;66.79;98001.85;102985;1322;111560;-69
2021/11/26 01:51:11;;;;;;;49.40;26.50;;;;;;;4.33;66.85;98001.83;102960;1319;97685;-70
2021/11/26 01:53:40;;;;;;;49.10;27.60;;;;;;;4.34;66.92;98006.38;102870;1325;107060;-69
2021/11/26 01:56:09;;;;;;;52.30;28.90;;;;;;;4.31;66.79;98005.09;102848;1325;98044;-69
2021/11/26 01:58:38;;;;;;;50.40;28.10;;;;;;;4.29;66.87;97995.56;102876;1325;97849;-70
2021/11/26 02:01:09;;;;;;;52.50;29.10;;;;;;;4.29;67.01;97989.64;102835;1321;111384;-70
2021/11/26 02:03:39;;;;;;;52.60;28.20;;;;;;;4.29;66.81;97984.56;102761;1320;96439;-69
2021/11/26 02:06:07;;;;;;;52.00;29.00;;;;;;;4.28;66.96;97981.26;102747;1325;107850;-67
2021/11/26 02:08:35;;;;;;;50.70;28.30;;;;;;;4.28;66.93;97982.50;102904;1322;95301;-69
2021/11/26 02:11:04;;;;;;;54.70;29.20;;;;;;;4.30;66.88;97985.55;102738;1325;97946;-69
2021/11/26 02:13:34;;;;;;;48.30;25.20;;;;;;;4.31;66.90;97987.39;103849;1319;112424;-71
2021/11/26 02:16:04;;;;;;;50.00;28.10;;;;;;;4.34;67.02;97985.61;103004;1319;98583;-70
2021/11/26 02:18:34;;;;;;;45.40;25.90;;;;;;;4.37;67.03;97981.56;102893;1320;107771;-71
2021/11/26 02:21:03;;;;;;;43.30;24.60;;;;;;;4.39;67.04;97978.10;102830;1321;97966;-72
2021/11/26 02:23:33;;;;;;;47.80;24.80;;;;;;;4.42;66.97;97977.08;102783;1321;97882;-71
2021/11/26 02:26:00;;;;;;;45.40;25.10;;;;;;;4.43;67.05;97979.92;102922;1318;111573;-71
2021/11/26 02:28:28;;;;;;;46.20;24.80;;;;;;;4.45;67.10;97979.49;103113;1319;97899;-70
2021/11/26 02:30:57;;;;;;;44.50;25.00;;;;;;;4.46;67.11;97980.84;103003;1323;107751;-67
2021/11/26 02:33:25;;;;;;;45.00;24.60;;;;;;;4.46;67.09;97972.41;102944;1322;97976;-71
2021/11/26 02:35:55;;;;;;;45.20;25.40;;;;;;;4.45;67.11;97964.55;102970;1322;97874;-72
2021/11/26 02:38:27;;;;;;;47.40;24.50;;;;;;;4.45;67.18;97963.66;103050;1322;111585;-70
2021/11/26 02:40:55;;;;;;;45.80;25.60;;;;;;;4.45;67.17;97962.77;103009;1320;97920;-69
2021/11/26 02:43:25;;;;;;;46.70;25.60;;;;;;;4.48;67.18;97954.02;102863;1322;108576;-68
2021/11/26 02:45:53;;;;;;;42.10;24.70;;;;;;;4.49;67.13;97945.88;102906;1325;98524;-69
2021/11/26 02:48:22;;;;;;;45.10;25.40;;;;;;;4.49;67.13;97940.96;102914;1322;95311;-70
2021/11/26 02:50:51;;;;;;;42.80;24.70;;;;;;;4.50;67.16;97943.52;102786;1322;145825;-70
2021/11/26 02:53:20;;;;;;;49.30;27.00;;;;;;;4.50;67.24;97940.71;102931;1323;97981;-70
2021/11/26 02:55:51;;;;;;;42.00;23.90;;;;;;;4.51;67.30;97938.20;102825;1321;107840;-70
2021/11/26 02:58:20;;;;;;;45.40;24.90;;;;;;;4.52;67.17;97935.49;102862;1322;98002;-69
2021/11/26 03:00:52;;;;;;;43.80;25.30;;;;;;;4.53;67.19;97934.38;103048;1319;97925;-69
2021/11/26 03:03:20;;;;;;;46.00;25.00;;;;;;;4.55;67.26;97934.96;103083;1319;110684;-70
2021/11/26 03:06:04;;;;;;;46.00;26.80;;;;;;;4.56;67.43;97931.05;103044;1319;95332;-70
2021/11/26 03:08:33;;;;;;;45.90;27.30;;;;;;;4.58;67.31;97921.59;102969;1321;107880;-70
2021/11/26 03:11:04;;;;;;;49.00;27.90;;;;;;;4.58;67.15;97913.54;102883;1324;98025;-69
2021/11/26 03:13:33;;;;;;;52.10;29.50;;;;;;;4.57;67.22;97906.91;102813;1322;97875;-68
2021/11/26 03:16:01;;;;;;;55.50;30.90;;;;;;;4.57;67.25;97901.61;102737;1322;112176;-68
2021/11/26 03:18:29;;;;;;;55.40;31.40;;;;;;;4.55;67.15;97902.48;102747;1326;98090;-70
2021/11/26 03:20:57;;;;;;;53.70;30.30;;;;;;;4.54;67.32;97902.70;102830;1319;105963;-69
2021/11/26 03:23:26;;;;;;;52.20;29.60;;;;;;;4.53;67.30;97903.64;102874;1322;98028;-70
2021/11/26 03:25:55;;;;;;;52.80;30.20;;;;;;;4.52;67.28;97907.55;102814;1322;97916;-71
2021/11/26 03:28:23;;;;;;;51.60;28.70;;;;;;;4.53;67.39;97909.84;102926;1319;112197;-69
2021/11/26 03:30:50;;;;;;;49.40;28.30;;;;;;;4.52;67.36;97908.06;102783;1321;98015;-69
2021/11/26 03:33:19;;;;;;;51.10;29.20;;;;;;;4.54;67.36;97909.76;102738;1322;107655;-70
2021/11/26 03:35:48;;;;;;;49.30;27.40;;;;;;;4.55;67.34;97906.53;102749;1322;97873;-69
2021/11/26 03:38:17;;;;;;;46.30;25.50;;;;;;;4.53;67.36;97904.15;102781;1320;95250;-69
2021/11/26 03:40:46;;;;;;;43.50;24.00;;;;;;;4.52;67.39;97898.63;102909;1319;111032;-70
2021/11/26 03:43:14;;;;;;;42.10;22.70;;;;;;;4.54;67.31;97899.35;102955;1323;97999;-70
2021/11/26 03:45:42;;;;;;;37.80;22.60;;;;;;;4.57;67.43;97892.70;102815;1319;107923;-70
2021/11/26 03:48:10;;;;;;;38.20;22.30;;;;;;;4.60;67.40;97882.66;102850;1322;98007;-69
2021/11/26 03:50:38;;;;;;;37.90;20.80;;;;;;;4.63;67.32;97875.95;102770;1319;96569;-70
2021/11/26 03:53:06;;;;;;;37.20;20.70;;;;;;;4.63;67.59;97872.30;102878;1325;111586;-69
2021/11/26 03:55:35;;;;;;;37.50;20.80;;;;;;;4.61;67.57;97866.27;102752;1320;97983;-69
2021/11/26 03:58:03;;;;;;;37.20;20.10;;;;;;;4.60;67.76;97860.72;102977;1319;107805;-69
2021/11/26 04:00:30;;;;;;;40.90;22.40;;;;;;;4.56;67.73;97858.00;102892;1322;97957;-69
2021/11/26 04:02:59;;;;;;;40.30;22.00;;;;;;;4.52;67.91;97860.31;102691;1322;98010;-69
2021/11/26 04:05:28;;;;;;;36.60;20.50;;;;;;;4.48;67.95;97861.33;102838;1323;111525;-70
2021/11/26 04:08:00;;;;;;;42.50;23.30;;;;;;;4.45;67.88;97864.71;102898;1319;98012;-69
2021/11/26 04:10:30;;;;;;;40.90;23.10;;;;;;;4.44;67.93;97865.42;102879;1319;108521;-70
2021/11/26 04:12:58;;;;;;;45.40;24.00;;;;;;;4.46;68.16;97855.98;102773;1322;98108;-69
2021/11/26 04:15:32;;;;;;;41.60;23.50;;;;;;;4.44;68.11;97852.98;102809;1325;96475;-70
2021/11/26 04:18:03;;;;;;;38.30;21.30;;;;;;;4.44;68.21;97855.81;102671;1321;111521;-68
2021/11/26 04:20:33;;;;;;;40.50;22.30;;;;;;;4.43;67.92;97855.16;102966;1319;97929;-69
2021/11/26 04:23:03;;;;;;;41.60;24.10;;;;;;;4.42;68.15;97852.93;103056;1322;107938;-70
2021/11/26 04:25:32;;;;;;;43.80;24.40;;;;;;;4.42;68.16;97853.48;103041;1319;98016;-69
2021/11/26 04:28:00;;;;;;;41.70;24.80;;;;;;;4.43;68.16;97846.74;102919;1319;97958;-70
2021/11/26 04:30:30;;;;;;;43.10;24.40;;;;;;;4.46;68.22;97840.92;102756;1325;112127;-70
2021/11/26 04:32:59;;;;;;;42.70;23.40;;;;;;;4.48;67.98;97831.30;102901;1322;95924;-70
2021/11/26 04:35:27;;;;;;;42.70;23.90;;;;;;;4.47;68.02;97825.05;102906;1320;106198;-69
2021/11/26 04:37:55;;;;;;;42.80;24.50;;;;;;;4.46;68.23;97820.20;102816;1325;97898;-69
2021/11/26 04:40:23;;;;;;;42.40;24.20;;;;;;;4.48;68.14;97820.98;102786;1320;98053;-68
2021/11/26 04:42:52;;;;;;;44.30;23.60;;;;;;;4.47;68.13;97830.30;102779;1325;111563;-69
2021/11/26 04:45:21;;;;;;;43.70;24.10;;;;;;;4.46;68.23;97822.46;102719;1316;97796;-70
2021/11/26 04:47:48;;;;;;;41.50;23.10;;;;;;;4.44;68.02;97817.86;102790;1322;107909;-70
2021/11/26 04:50:17;;;;;;;47.20;25.90;;;;;;;4.43;68.13;97818.65;102791;1326;98018;-70
2021/11/26 04:52:45;;;;;;;48.60;26.40;;;;;;;4.40;68.07;97814.10;102978;1319;98036;-69
2021/11/26 04:55:14;;;;;;;51.10;27.00;;;;;;;4.35;68.09;97810.75;102776;1318;111487;-70
2021/11/26 04:57:44;;;;;;;51.00;27.60;;;;;;;4.32;68.18;97814.48;102732;1325;97975;-73
2021/11/26 05:00:15;;;;;;;54.60;29.00;;;;;;;4.28;68.26;97817.52;102792;1325;107900;-71
2021/11/26 05:02:45;;;;;;;52.10;28.40;;;;;;;4.25;68.17;97818.83;102877;1322;97896;-70
2021/11/26 05:05:14;;;;;;;50.60;28.80;;;;;;;4.22;68.21;97826.02;102804;1322;97977;-69
2021/11/26 05:07:45;;;;;;;53.00;29.00;;;;;;;4.20;68.19;97824.21;102930;1322;111605;-69
2021/11/26 05:10:19;;;;;;;53.30;29.70;;;;;;;4.16;68.23;97825.14;102764;1325;97921;-69
2021/11/26 05:12:55;;;;;;;53.00;29.30;;;;;;;4.13;67.92;97830.11;102802;1325;108354;-70
2021/11/26 05:15:28;;;;;;;54.20;28.60;;;;;;;4.11;68.27;97823.56;102693;1325;96399;-70
2021/11/26 05:18:03;;;;;;;56.50;30.90;;;;;;;4.09;68.27;97820.23;102814;1325;97873;-69
2021/11/26 05:20:35;;;;;;;63.60;32.60;;;;;;;4.08;68.20;97827.83;102764;1325;112464;-69
2021/11/26 05:23:03;;;;;;;68.30;33.00;;;;;;;4.06;68.24;97837.82;102630;1322;99509;-69
2021/11/26 05:25:34;;;;;;;79.10;39.00;;;;;;;4.03;68.31;97839.17;102827;1318;108634;-69
2021/11/26 05:28:04;;;;;;;75.80;37.60;;;;;;;4.03;68.26;97841.28;102896;1320;97903;-68
2021/11/26 05:30:32;;;;;;;66.60;33.00;;;;;;;4.01;68.11;97832.48;102875;1322;97900;-68
2021/11/26 05:33:01;;;;;;;62.00;31.60;;;;;;;3.98;68.24;97829.30;102900;1319;111175;-69
2021/11/26 05:35:31;;;;;;;58.90;31.80;;;;;;;3.97;68.14;97831.70;102987;1322;96667;-69
2021/11/26 05:37:59;;;;;;;56.10;30.20;;;;;;;3.95;68.28;97839.36;103003;1320;107706;-69
2021/11/26 05:40:27;;;;;;;57.80;31.40;;;;;;;3.96;68.22;97846.46;103038;1322;98043;-71
2021/11/26 05:42:59;;;;;;;58.30;33.00;;;;;;;3.95;68.34;97835.98;103033;1319;97902;-68
2021/11/26 05:45:27;;;;;;;59.90;31.70;;;;;;;3.94;68.28;97812.06;103042;1322;111128;-70
2021/11/26 05:48:00;;;;;;;61.30;33.20;;;;;;;3.92;68.27;97814.27;102898;1319;98002;-67
2021/11/26 05:50:30;;;;;;;57.20;30.40;;;;;;;3.89;68.20;97819.05;102733;1322;108654;-69
2021/11/26 05:52:58;;;;;;;58.60;31.10;;;;;;;3.85;68.13;97822.30;102896;1318;96584;-69
2021/11/26 05:55:31;;;;;;;60.10;31.60;;;;;;;3.85;68.43;97824.70;102874;1322;95216;-69
2021/11/26 05:58:02;;;;;;;55.30;30.20;;;;;;;3.89;68.36;97822.03;102836;1319;112106;-69
2021/11/26 06:00:33;;;;;;;63.60;32.50;;;;;;;3.90;68.48;97814.39;102828;1322;98301;-68
2021/11/26 06:03:04;;;;;;;64.30;35.80;;;;;;;3.92;68.50;97803.62;102770;1327;107843;-69
2021/11/26 06:05:34;;;;;;;123.10;72.10;;;;;;;3.94;68.43;97806.60;102695;1325;97891;-67
2021/11/26 06:08:04;;;;;;;92.50;52.40;;;;;;;3.97;68.54;97806.42;102825;1325;97906;-70
2021/11/26 06:10:32;;;;;;;83.80;46.80;;;;;;;3.99;68.62;97809.45;102892;1322;111482;-69
2021/11/26 06:13:00;;;;;;;86.20;50.30;;;;;;;4.00;68.61;97814.30;102842;1319;97948;-69
2021/11/26 06:15:28;;;;;;;100.50;59.00;;;;;;;4.01;68.60;97808.80;102927;1322;107726;-70
2021/11/26 06:17:58;;;;;;;95.40;51.00;;;;;;;4.00;68.58;97806.20;102910;1321;97927;-69
2021/11/26 06:20:27;;;;;;;88.70;43.60;;;;;;;4.00;68.55;97800.59;102886;1318;97966;-71
2021/11/26 06:22:55;;;;;;;87.70;48.60;;;;;;;3.98;68.53;97799.88;102667;1319;111140;-68
2021/11/26 06:25:25;;;;;;;85.90;47.40;;;;;;;3.96;68.60;97792.30;102827;1322;97068;-68
2021/11/26 06:27:53;;;;;;;90.90;50.80;;;;;;;3.98;68.76;97790.54;102882;1325;107430;-68
2021/11/26 06:30:23;;;;;;;92.00;51.90;;;;;;;4.02;68.78;97788.04;102845;1322;97944;-68
2021/11/26 06:32:54;;;;;;;106.20;51.10;;;;;;;4.04;68.74;97781.61;102782;1322;95320;-67
2021/11/26 06:35:25;;;;;;;87.30;47.50;;;;;;;4.05;68.71;97776.42;102786;1325;112113;-69
2021/11/26 06:37:56;;;;;;;84.80;48.30;;;;;;;4.08;68.86;97773.10;102819;1322;98530;-69
2021/11/26 06:40:26;;;;;;;93.60;49.70;;;;;;;4.11;68.89;97773.59;102804;1322;108030;-70
2021/11/26 06:42:56;;;;;;;81.70;46.40;;;;;;;4.13;69.06;97772.89;102800;1325;95215;-68
2021/11/26 06:45:27;;;;;;;77.80;41.90;;;;;;;4.16;68.84;97767.61;102664;1325;97898;-70
2021/11/26 06:47:55;;;;;;;80.80;44.20;;;;;;;4.19;68.97;97762.69;102778;1323;111325;-70
2021/11/26 06:50:23;;;;;;;75.30;41.40;;;;;;;4.22;69.02;97764.10;102678;1318;96009;-74
2021/11/26 06:52:52;;;;;;;73.20;41.10;;;;;;;4.25;68.93;97771.62;102745;1319;108593;-72
2021/11/26 06:55:21;;;;;;;70.50;39.00;;;;;;;4.28;68.85;97777.71;102633;1324;97960;-71
2021/11/26 06:57:51;;;;;;;69.90;37.90;;;;;;;4.31;68.82;97781.73;102738;1321;96505;-71
2021/11/26 07:00:19;;;;;;;76.40;39.50;;;;;;;4.34;69.13;97776.93;102731;1322;111477;-72
2021/11/26 07:02:47;;;;;;;71.90;39.60;;;;;;;4.38;68.97;97769.30;102718;1320;97912;-72
2021/11/26 07:05:15;;;;;;;77.10;43.20;;;;;;;4.41;68.97;97761.55;102688;1325;107928;-72
2021/11/26 07:07:45;;;;;;;72.50;38.20;;;;;;;4.42;68.96;97760.96;102869;1323;97925;-74
2021/11/26 07:10:15;;;;;;;71.70;39.60;;;;;;;4.43;69.01;97760.36;102901;1320;98032;-73
2021/11/26 07:12:43;;;;;;;75.10;39.40;;;;;;;4.45;68.96;97754.41;102890;1326;111103;-71
2021/11/26 07:15:19;;;;;;;70.20;38.80;;;;;;;4.48;68.85;97751.47;102884;1324;97967;-71
2021/11/26 07:17:46;;;;;;;74.50;39.90;;;;;;;4.49;68.97;97747.49;102825;1319;107970;-71
2021/11/26 07:20:17;;;;;;;73.40;39.40;;;;;;;4.51;69.06;97740.14;102790;1320;98040;-71
2021/11/26 07:22:48;;;;;;;65.20;35.30;;;;;;;4.54;69.06;97732.59;102756;1320;98443;-73
2021/11/26 07:25:16;;;;;;;69.80;38.90;;;;;;;4.55;69.09;97730.91;102802;1325;111585;-72
2021/11/26 07:27:45;;;;;;;69.00;37.80;;;;;;;4.58;69.03;97730.73;102831;1322;97885;-71
2021/11/26 07:30:16;;;;;;;67.30;38.60;;;;;;;4.60;69.04;97734.83;102778;1320;107994;-70
2021/11/26 07:32:44;;;;;;;65.70;37.10;;;;;;;4.62;69.11;97723.42;102996;1319;97872;-72
2021/11/26 07:35:16;;;;;;;69.40;40.90;;;;;;;4.63;68.89;97708.61;102858;1325;96069;-73
2021/11/26 07:37:44;;;;;;;71.80;39.80;;;;;;;4.63;68.98;97698.47;102541;1322;110239;-71
2021/11/26 07:40:17;;;;;;;76.30;41.80;;;;;;;4.65;68.99;97701.14;102813;1318;96187;-70
2021/11/26 07:42:48;;;;;;;65.20;35.70;;;;;;;4.65;68.97;97690.56;102713;1318;107886;-69
2021/11/26 07:45:18;;;;;;;57.30;33.80;;;;;;;4.66;68.91;97679.65;102645;1320;98049;-73
2021/11/26 07:47:46;;;;;;;62.40;34.30;;;;;;;4.63;68.93;97677.73;102713;1322;97982;-70
2021/11/26 07:50:14;;;;;;;65.80;35.90;;;;;;;4.61;68.95;97664.71;102739;1323;111296;-71
2021/11/26 07:52:43;;;;;;;64.10;36.20;;;;;;;4.59;68.87;97664.67;102667;1325;95209;-73
2021/11/26 07:55:13;;;;;;;68.60;35.80;;;;;;;4.60;69.08;97659.12;102700;1324;107893;-72
2021/11/26 07:57:45;;;;;;;68.70;36.60;;;;;;;4.64;69.22;97652.89;102878;1323;97977;-72
2021/11/26 08:00:17;;;;;;;65.40;35.60;;;;;;;4.71;69.39;97651.15;102872;1319;98708;-70
2021/11/26 08:02:45;;;;;;;63.00;35.20;;;;;;;4.79;69.37;97642.68;102696;1325;112446;-72
2021/11/26 08:05:14;;;;;;;69.40;36.00;;;;;;;4.88;69.43;97636.45;102753;1324;97805;-71
2021/11/26 08:07:42;;;;;;;65.00;36.20;;;;;;;4.95;69.44;97632.75;103389;1323;107496;-71
2021/11/26 08:10:11;;;;;;;66.00;36.50;;;;;;;5.02;69.44;97628.39;103164;1320;96351;-70
2021/11/26 08:12:43;;;;;;;63.30;36.40;;;;;;;5.10;69.54;97622.92;102974;1324;97914;-69
2021/11/26 08:15:17;;;;;;;66.20;36.40;;;;;;;5.19;69.58;97617.82;102960;1323;111613;-70
2021/11/26 08:17:50;;;;;;;70.80;41.30;;;;;;;5.31;69.57;97613.63;102779;1325;97903;-71
2021/11/26 08:20:18;;;;;;;69.10;37.50;;;;;;;5.41;69.53;97612.03;102874;1325;107836;-72
2021/11/26 08:22:53;;;;;;;74.20;40.90;;;;;;;5.52;69.66;97611.54;102893;1326;97997;-70
2021/11/26 08:25:27;;;;;;;86.10;47.40;;;;;;;5.63;69.61;97616.89;102869;1322;97932;-70
2021/11/26 08:27:57;;;;;;;85.80;45.90;;;;;;;5.72;69.56;97620.74;103132;1323;111525;-70
2021/11/26 08:30:25;;;;;;;74.70;40.30;;;;;;;5.80;69.53;97620.33;102995;1322;97969;-70
2021/11/26 08:32:57;;;;;;;70.80;38.50;;;;;;;5.88;69.56;97613.27;103000;1324;107847;-70
2021/11/26 08:35:25;;;;;;;71.50;37.80;;;;;;;5.96;69.67;97607.52;102757;1325;98056;-70
2021/11/26 08:37:54;;;;;;;65.30;38.20;;;;;;;6.04;69.75;97602.18;102910;1323;97963;-70
2021/11/26 08:40:22;;;;;;;59.60;33.30;;;;;;;6.12;69.79;97599.48;102669;1327;111649;-71
2021/11/26 08:42:50;;;;;;;57.40;30.50;;;;;;;6.19;69.68;97595.39;102624;1322;97859;-70
2021/11/26 08:45:19;;;;;;;57.10;28.70;;;;;;;6.28;69.76;97591.94;102629;1318;107799;-74
2021/11/26 08:47:50;;;;;;;61.40;34.00;;;;;;;6.36;69.67;97583.85;102665;1319;97931;-69
2021/11/26 08:50:19;;;;;;;72.10;39.20;;;;;;;6.44;69.52;97582.52;102719;1322;98044;-70
2021/11/26 08:52:50;;;;;;;71.80;39.40;;;;;;;6.52;69.68;97579.13;102787;1317;112117;-69
2021/11/26 08:55:18;;;;;;;70.70;40.40;;;;;;;6.60;69.59;97574.59;102805;1320;96542;-71
2021/11/26 08:57:52;;;;;;;64.30;39.10;;;;;;;6.66;69.68;97568.46;102793;1322;107857;-71
2021/11/26 09:00:31;;;;;;;73.90;39.80;;;;;;;6.74;69.58;97565.73;102697;1320;98080;-71
2021/11/26 09:03:04;;;;;;;71.90;40.10;;;;;;;6.80;69.75;97562.05;102782;1323;97927;-74
2021/11/26 09:05:33;;;;;;;71.50;38.70;;;;;;;6.86;69.66;97563.71;102892;1325;111613;-74
2021/11/26 09:08:04;;;;;;;66.60;38.40;;;;;;;6.92;69.67;97557.02;102742;1320;97902;-73
2021/11/26 09:10:40;;;;;;;66.40;36.80;;;;;;;7.00;69.79;97555.52;102727;1324;107863;-74
2021/11/26 09:13:10;;;;;;;66.30;38.60;;;;;;;7.07;69.80;97559.91;102911;1319;99026;-72
2021/11/26 09:15:43;;;;;;;67.10;39.20;;;;;;;7.12;69.49;97558.56;102727;1326;97969;-71
2021/11/26 09:18:15;;;;;;;67.00;37.20;;;;;;;7.18;69.51;97550.70;102897;1319;109940;-68
2021/11/26 09:20:49;;;;;;;63.20;35.60;;;;;;;7.24;69.46;97556.37;102573;1320;98000;-72
2021/11/26 09:23:19;;;;;;;65.00;37.50;;;;;;;7.27;69.55;97559.13;104240;1322;107914;-73
2021/11/26 09:25:48;;;;;;;69.60;35.70;;;;;;;7.30;69.77;97556.20;103491;1321;97674;-72
2021/11/26 09:28:17;;;;;;;58.90;35.00;;;;;;;7.37;69.60;97560.77;102633;1326;98040;-72
2021/11/26 09:30:48;;;;;;;60.30;33.50;;;;;;;7.42;69.57;97561.71;102702;1325;111502;-72
2021/11/26 09:33:18;;;;;;;60.80;33.10;;;;;;;7.48;69.78;97554.42;103028;1320;97933;-71
2021/11/26 09:35:47;;;;;;;55.70;32.70;;;;;;;7.54;69.48;97550.34;102646;1326;107849;-72
2021/11/26 09:38:15;;;;;;;57.50;34.60;;;;;;;7.59;69.58;97542.48;102834;1320;95301;-73
2021/11/26 09:40:44;;;;;;;61.40;33.90;;;;;;;7.64;69.64;97544.77;102904;1320;97848;-70
2021/11/26 09:43:13;;;;;;;64.10;35.20;;;;;;;7.66;69.51;97538.23;102704;1318;112138;-74
2021/11/26 09:45:41;;;;;;;62.80;36.40;;;;;;;7.68;69.68;97535.19;102733;1320;97856;-71
2021/11/26 09:48:09;;;;;;;58.90;34.80;;;;;;;7.71;69.50;97530.41;102734;1324;107805;-71
2021/11/26 09:50:37;;;;;;;63.80;36.70;;;;;;;7.73;69.48;97525.13;102700;1325;97879;-72
2021/11/26 09:53:17;;;;;;;69.10;36.10;;;;;;;7.73;69.61;97524.91;102849;1320;97915;-73
2021/11/26 09:55:49;;;;;;;62.60;36.40;;;;;;;7.74;69.57;97522.31;102826;1320;112005;-71
2021/11/26 09:58:19;;;;;;;62.50;35.30;;;;;;;7.75;69.66;97517.45;102699;1320;97970;-70
2021/11/26 10:00:49;;;;;;;59.60;34.50;;;;;;;7.78;69.62;97511.80;102766;1319;107936;-70
2021/11/26 10:03:22;;;;;;;59.70;34.50;;;;;;;7.81;69.53;97507.27;102822;1325;98660;-71
2021/11/26 10:05:49;;;;;;;57.20;33.20;;;;;;;7.85;69.48;97496.77;102874;1319;96154;-70
2021/11/26 10:08:24;;;;;;;56.00;32.50;;;;;;;7.89;69.54;97492.15;102803;1318;111532;-70
2021/11/26 10:11:01;;;;;;;60.10;32.60;;;;;;;7.93;69.69;97483.70;102743;1324;97908;-68
2021/11/26 10:13:31;;;;;;;58.10;33.00;;;;;;;7.96;69.64;97476.86;102840;1325;107261;-71
2021/11/26 10:16:10;;;;;;;68.90;40.00;;;;;;;7.98;69.54;97467.00;102595;1325;95209;-71
2021/11/26 10:18:46;;;;;;;68.20;38.60;;;;;;;8.01;69.50;97462.51;102981;1326;97969;-71
2021/11/26 10:21:14;;;;;;;62.40;36.30;;;;;;;8.04;69.53;97459.89;103297;1319;111511;-72
2021/11/26 10:23:53;;;;;;;60.60;34.70;;;;;;;8.06;69.54;97456.39;103178;1319;95973;-71
2021/11/26 10:26:27;;;;;;;59.90;34.80;;;;;;;8.10;69.58;97450.74;102757;1319;107732;-72
2021/11/26 10:29:02;;;;;;;54.90;33.80;;;;;;;8.14;69.44;97445.09;102827;1320;98676;-71
2021/11/26 10:31:35;;;;;;;73.20;38.00;;;;;;;8.20;69.62;97437.73;102924;1320;96435;-71
2021/11/26 10:34:27;;;;;;;77.20;40.50;;;;;;;8.27;69.67;97426.29;102860;1320;110567;-70
2021/11/26 10:36:56;;;;;;;77.80;38.70;;;;;;;8.34;69.58;97414.73;102878;1321;96483;-71
2021/11/26 10:39:27;;;;;;;69.30;36.50;;;;;;;8.42;69.47;97412.48;102921;1323;106849;-70
2021/11/26 10:42:00;;;;;;;78.60;40.20;;;;;;;8.46;69.56;97403.23;102892;1318;98633;-70
2021/11/26 10:44:46;;;;;;;65.80;36.40;;;;;;;8.53;69.56;97394.02;102906;1319;98492;-70
2021/11/26 10:47:21;;;;;;;57.00;31.20;;;;;;;8.58;69.63;97385.75;102702;1322;111572;-71
2021/11/26 10:58:22;;;;;;;53.00;29.60;;;;;;;8.68;69.40;97372.85;102706;1322;95333;-69
2021/11/26 11:01:13;;;;;;;56.20;31.40;;;;;;;8.69;69.50;97367.14;102753;1323;112159;-71
2021/11/26 11:03:46;;;;;;;55.30;31.10;;;;;;;8.69;69.52;97361.69;102737;1320;97952;-71
2021/11/26 11:06:25;;;;;;;47.80;29.50;;;;;;;8.69;69.44;97351.04;102795;1318;108120;-70
2021/11/26 11:09:08;;;;;;;52.30;29.40;;;;;;;8.70;69.37;97351.11;102732;1319;97972;-70
2021/11/26 11:11:38;;;;;;;50.70;29.80;;;;;;;8.70;69.34;97339.28;102845;1318;97904;-74
2021/11/26 11:14:15;;;;;;;48.80;28.30;;;;;;;8.71;69.35;97339.17;102767;1319;111453;-71
2021/11/26 11:16:48;;;;;;;48.90;28.00;;;;;;;8.72;69.33;97327.12;102946;1319;95279;-71
2021/11/26 11:19:19;;;;;;;51.40;28.40;;;;;;;8.74;69.33;97319.86;102995;1322;107464;-72
2021/11/26 11:21:49;;;;;;;52.40;28.80;;;;;;;8.74;69.37;97321.56;102863;1325;97915;-72
2021/11/26 11:24:19;;;;;;;49.30;27.70;;;;;;;8.76;69.36;97314.63;102990;1322;95900;-73
2021/11/26 11:26:51;;;;;;;49.80;28.60;;;;;;;8.79;69.38;97306.44;102666;1321;111405;-73
2021/11/26 11:29:23;;;;;;;46.70;26.80;;;;;;;8.79;69.34;97298.28;102827;1318;97957;-71
2021/11/26 11:31:55;;;;;;;47.60;26.70;;;;;;;8.77;69.33;97287.69;102977;1318;108599;-71
2021/11/26 11:34:28;;;;;;;53.40;30.80;;;;;;;8.78;69.35;97282.52;102802;1324;98019;-71
2021/11/26 11:37:06;;;;;;;;;;;;;;;8.78;69.26;97275.12;102984;1320;97886;-69